Time,TemperatureF,DewpointF,PressureIn,WindDirection,WindDirectionDegrees,WindSpeedMPH,WindSpeedGustMPH,Humidity,HourlyPrecipIn,Conditions,Clouds,dailyrainin,SoftwareType,DateUTC
2013-05-10 00:02:00,75.0,72.0,29.91,SSE,148,8.0,23.0,90,0.00,,,0.00,,2013-05-10 05:02:00,
2013-05-10 00:12:00,75.0,72.0,29.91,SSE,148,8.0,23.0,90,0.00,,,0.00,,2013-05-10 05:12:00,
2013-05-10 00:22:00,74.0,72.0,29.89,SSE,161,6.0,15.0,92,0.00,,,0.00,,2013-05-10 05:22:00,
2013-05-10 00:32:00,74.0,71.0,29.88,SE,144,5.0,16.0,91,0.00,,,0.00,,2013-05-10 05:32:00,
2013-05-10 00:42:00,74.0,71.0,29.92,South,170,9.0,21.0,91,0.00,,,0.00,,2013-05-10 05:42:00,
2013-05-10 00:52:00,74.0,71.0,29.92,South,170,9.0,21.0,91,0.00,,,0.00,,2013-05-10 05:52:00,
2013-05-10 01:01:00,74.0,71.0,29.98,WSW,243,8.0,14.0,91,0.06,,,0.06,,2013-05-10 06:01:00,
2013-05-10 01:12:00,74.0,71.0,29.98,WSW,243,8.0,14.0,91,0.06,,,0.06,,2013-05-10 06:12:00,
2013-05-10 01:21:00,71.0,69.0,29.96,NNW,346,3.0,15.0,93,0.73,,,0.73,,2013-05-10 06:21:00,
2013-05-10 01:32:00,70.0,68.0,29.94,WNW,299,0.0,7.0,92,0.90,,,0.90,,2013-05-10 06:32:00,
2013-05-10 01:42:00,70.0,68.0,29.94,WNW,299,0.0,7.0,92,0.90,,,0.90,,2013-05-10 06:42:00,
2013-05-10 01:52:00,67.0,66.0,29.98,NW,325,2.0,11.0,95,1.73,,,1.73,,2013-05-10 06:52:00,
2013-05-10 02:01:00,67.0,66.0,29.96,SE,142,1.0,7.0,96,2.12,,,2.18,,2013-05-10 07:01:00,
2013-05-10 02:12:00,67.0,66.0,29.96,SE,142,1.0,7.0,96,2.12,,,2.18,,2013-05-10 07:12:00,
2013-05-10 02:22:00,66.0,65.0,29.95,NE,51,6.0,13.0,96,1.75,,,2.51,,2013-05-10 07:22:00,
2013-05-10 02:31:00,66.0,65.0,29.95,NE,51,6.0,13.0,96,1.75,,,2.51,,2013-05-10 07:31:00,
2013-05-10 02:42:00,64.0,63.0,29.91,ENE,66,8.0,16.0,96,0.91,,,2.64,,2013-05-10 07:42:00,
2013-05-10 02:52:00,64.0,63.0,29.91,ENE,66,8.0,16.0,96,0.91,,,2.64,,2013-05-10 07:52:00,
2013-05-10 03:02:00,64.0,63.0,29.92,SE,132,10.0,16.0,96,0.46,,,2.64,,2013-05-10 08:02:00,
2013-05-10 03:12:00,64.0,63.0,29.92,SE,132,10.0,16.0,96,0.46,,,2.64,,2013-05-10 08:12:00,
2013-05-10 03:22:00,64.0,63.0,29.95,ENE,60,5.0,10.0,96,0.19,,,2.70,,2013-05-10 08:22:00,
2013-05-10 03:32:00,64.0,63.0,29.96,East,92,6.0,9.0,96,0.13,,,2.71,,2013-05-10 08:32:00,
2013-05-10 03:42:00,64.0,63.0,29.96,East,92,6.0,9.0,96,0.13,,,2.71,,2013-05-10 08:42:00,
2013-05-10 03:52:00,64.0,63.0,29.98,ENE,57,2.0,11.0,96,0.11,,,2.75,,2013-05-10 08:52:00,
2013-05-10 04:01:00,64.0,63.0,29.97,ENE,65,327.0,327.0,96,-99.99,,,-99.99,,2013-05-10 09:01:00,
2013-05-10 04:11:00,64.0,63.0,29.97,ENE,65,327.0,327.0,96,-99.99,,,-99.99,,2013-05-10 09:11:00,
2013-05-10 04:21:00,64.0,63.0,30.00,East,82,327.0,327.0,96,-99.99,,,-99.99,,2013-05-10 09:21:00,
2013-05-10 04:32:00,64.0,63.0,29.98,East,86,2.0,7.0,96,0.20,,,2.91,,2013-05-10 09:32:00,
2013-05-10 04:42:00,64.0,63.0,29.98,East,86,2.0,7.0,96,0.20,,,2.91,,2013-05-10 09:42:00,
2013-05-10 04:52:00,65.0,64.0,29.95,South,175,4.0,15.0,97,0.20,,,2.95,,2013-05-10 09:52:00,
2013-05-10 05:03:00,66.0,65.0,29.97,South,191,8.0,19.0,97,0.20,,,2.96,,2013-05-10 10:03:00,
2013-05-10 05:12:00,66.0,65.0,29.97,South,191,8.0,19.0,97,0.20,,,2.96,,2013-05-10 10:12:00,
2013-05-10 05:23:00,66.0,65.0,30.00,ESE,112,1.0,12.0,96,0.14,,,2.96,,2013-05-10 10:23:00,
2013-05-10 05:32:00,66.0,65.0,30.02,SSE,150,3.0,9.0,96,0.10,,,3.00,,2013-05-10 10:32:00,
2013-05-10 05:42:00,66.0,65.0,30.02,SSE,150,3.0,9.0,96,0.10,,,3.00,,2013-05-10 10:42:00,
2013-05-10 05:52:00,66.0,65.0,29.97,ENE,58,5.0,11.0,96,0.09,,,3.04,,2013-05-10 10:52:00,
2013-05-10 06:02:00,66.0,65.0,29.93,East,79,9.0,-999.0,96,-99.99,,,-99.99,,2013-05-10 11:02:00,
2013-05-10 06:12:00,66.0,65.0,29.93,East,79,9.0,-999.0,96,-99.99,,,-99.99,,2013-05-10 11:12:00,
2013-05-10 06:22:00,66.0,65.0,29.91,South,176,3.0,6.0,95,0.07,,,3.05,,2013-05-10 11:22:00,
2013-05-10 06:32:00,66.0,65.0,29.92,SSW,201,7.0,20.0,95,0.05,,,3.06,,2013-05-10 11:32:00,
2013-05-10 06:42:00,66.0,65.0,29.92,SSW,201,7.0,20.0,95,0.05,,,3.06,,2013-05-10 11:42:00,
2013-05-10 06:52:00,67.0,65.0,29.94,SE,142,3.0,15.0,93,0.02,,,3.06,,2013-05-10 11:52:00,
2013-05-10 07:01:00,67.0,65.0,29.94,SSW,207,4.0,10.0,93,0.01,,,3.06,,2013-05-10 12:01:00,
2013-05-10 07:12:00,67.0,65.0,29.94,SSW,207,4.0,10.0,93,0.01,,,3.06,,2013-05-10 12:12:00,
2013-05-10 07:21:00,67.0,64.0,29.96,South,169,6.0,19.0,90,0.01,,,3.06,,2013-05-10 12:21:00,
2013-05-10 07:32:00,67.0,64.0,29.96,WSW,250,5.0,13.0,89,0.00,,,3.06,,2013-05-10 12:32:00,
2013-05-10 07:42:00,67.0,64.0,29.96,WSW,250,5.0,13.0,89,0.00,,,3.06,,2013-05-10 12:42:00,
2013-05-10 07:52:00,68.0,64.0,29.95,WSW,252,4.0,16.0,86,0.00,,,3.06,,2013-05-10 12:52:00,
2013-05-10 08:01:00,68.0,64.0,29.95,WSW,252,4.0,16.0,86,0.00,,,3.06,,2013-05-10 13:01:00,
2013-05-10 08:11:00,68.0,64.0,29.95,WSW,252,4.0,16.0,86,0.00,,,3.06,,2013-05-10 13:11:00,
2013-05-10 08:21:00,69.0,64.0,29.94,South,188,5.0,11.0,83,0.00,,,3.06,,2013-05-10 13:21:00,
2013-05-10 08:32:00,69.0,64.0,29.94,South,188,5.0,11.0,83,0.00,,,3.06,,2013-05-10 13:32:00,
2013-05-10 08:42:00,69.0,64.0,29.94,South,188,5.0,11.0,83,0.00,,,3.06,,2013-05-10 13:42:00,
2013-05-10 08:52:00,69.0,63.0,29.94,SW,223,4.0,16.0,81,0.00,,,3.06,,2013-05-10 13:52:00,
2013-05-10 09:02:00,69.0,63.0,29.94,SE,136,3.0,11.0,81,0.00,,,3.06,,2013-05-10 14:02:00,
2013-05-10 09:11:00,69.0,63.0,29.94,SE,136,3.0,11.0,81,0.00,,,3.06,,2013-05-10 14:11:00,
2013-05-10 09:21:00,69.0,62.0,29.94,SSW,211,4.0,12.0,79,0.00,,,3.06,,2013-05-10 14:21:00,
2013-05-10 09:32:00,70.0,62.0,29.94,South,186,5.0,10.0,77,0.00,,,3.06,,2013-05-10 14:32:00,
2013-05-10 09:42:00,70.0,62.0,29.94,South,186,5.0,10.0,77,0.00,,,3.06,,2013-05-10 14:42:00,
2013-05-10 09:52:00,71.0,63.0,29.96,SSW,208,4.0,10.0,76,0.00,,,3.06,,2013-05-10 14:52:00,
2013-05-10 10:02:00,72.0,62.0,29.96,SSE,159,2.0,5.0,72,0.00,,,3.06,,2013-05-10 15:02:00,
2013-05-10 10:20:00,-999.0,-99.9,29.96,SSE,159,2.0,5.0,72,0.00,,,3.06,,2013-05-10 15:20:00,
2013-05-10 10:32:00,74.0,62.0,29.95,South,185,7.0,13.0,67,0.00,,,3.06,,2013-05-10 15:32:00,
2013-05-10 10:42:00,75.0,63.0,29.95,SSW,204,1.0,4.0,67,0.00,,,3.06,,2013-05-10 15:42:00,
2013-05-10 10:53:00,75.0,63.0,29.95,SSW,204,1.0,4.0,67,0.00,,,3.06,,2013-05-10 15:53:00,
2013-05-10 11:02:00,75.0,64.0,29.96,WNW,294,327.0,327.0,69,-99.99,,,-99.99,,2013-05-10 16:02:00,
2013-05-10 11:12:00,75.0,64.0,29.96,WNW,294,327.0,327.0,69,-99.99,,,-99.99,,2013-05-10 16:12:00,
2013-05-10 11:23:00,74.0,65.0,29.98,NNW,348,4.0,7.0,73,0.00,,,3.06,,2013-05-10 16:23:00,
2013-05-10 11:32:00,73.0,64.0,29.98,SSW,202,1.0,8.0,74,0.00,,,3.06,,2013-05-10 16:32:00,
2013-05-10 11:42:00,73.0,66.0,30.00,West,268,0.0,2.0,80,0.00,,,3.06,,2013-05-10 16:42:00,
2013-05-10 11:53:00,73.0,66.0,30.00,West,268,0.0,2.0,80,0.00,,,3.06,,2013-05-10 16:53:00,
2013-05-10 12:02:00,72.0,66.0,30.01,NNW,333,4.0,7.0,82,0.02,,,3.08,,2013-05-10 17:02:00,
2013-05-10 12:12:00,72.0,66.0,30.01,NNW,333,4.0,7.0,82,0.02,,,3.08,,2013-05-10 17:12:00,
2013-05-10 12:22:00,70.0,66.0,30.03,NNW,330,0.0,4.0,88,0.20,,,3.26,,2013-05-10 17:22:00,
2013-05-10 12:32:00,69.0,66.0,30.03,NW,306,0.0,1.0,90,0.25,,,3.31,,2013-05-10 17:32:00,
2013-05-10 12:42:00,68.0,66.0,30.02,NNW,342,1.0,5.0,93,0.34,,,3.40,,2013-05-10 17:42:00,
2013-05-10 12:52:00,68.0,66.0,30.02,NNW,342,1.0,5.0,93,0.34,,,3.40,,2013-05-10 17:52:00,
2013-05-10 13:10:00,-999.0,-99.9,30.02,North,360,1.0,5.0,94,0.32,,,3.42,,2013-05-10 18:10:00,
2013-05-10 13:22:00,68.0,66.0,30.02,North,355,2.0,-999.0,94,-99.99,,,-99.99,,2013-05-10 18:22:00,
2013-05-10 13:34:00,68.0,67.0,30.06,SW,228,1.0,3.0,95,0.25,,,3.54,,2013-05-10 18:34:00,
2013-05-10 13:43:00,68.0,67.0,30.06,SSW,213,6.0,11.0,96,0.57,,,3.97,,2013-05-10 18:43:00,
2013-05-10 13:54:00,68.0,67.0,30.06,SSW,213,6.0,11.0,96,0.57,,,3.97,,2013-05-10 18:54:00,
2013-05-10 14:02:00,68.0,67.0,30.06,SSW,213,6.0,11.0,96,0.57,,,3.97,,2013-05-10 19:02:00,
2013-05-10 14:11:00,68.0,67.0,30.06,SSW,213,6.0,11.0,96,0.57,,,3.97,,2013-05-10 19:11:00,
2013-05-10 14:21:00,68.0,67.0,30.08,WNW,284,4.0,10.0,96,0.73,,,4.22,,2013-05-10 19:21:00,
2013-05-10 14:32:00,68.0,67.0,30.08,South,180,3.0,7.0,96,0.71,,,4.27,,2013-05-10 19:32:00,
2013-05-10 14:42:00,68.0,67.0,30.08,South,180,3.0,7.0,96,0.71,,,4.27,,2013-05-10 19:42:00,
2013-05-10 14:52:00,67.0,66.0,30.08,SSW,209,0.0,5.0,96,0.29,,,4.35,,2013-05-10 19:52:00,
2013-05-10 15:01:00,67.0,66.0,30.06,South,188,1.0,4.0,96,0.26,,,4.40,,2013-05-10 20:01:00,
2013-05-10 15:12:00,67.0,66.0,30.06,South,188,1.0,4.0,96,0.26,,,4.40,,2013-05-10 20:12:00,
2013-05-10 15:21:00,67.0,66.0,29.99,ENE,65,1.0,5.0,96,0.22,,,4.45,,2013-05-10 20:21:00,
2013-05-10 15:32:00,67.0,66.0,29.88,NE,52,9.0,16.0,96,0.17,,,4.45,,2013-05-10 20:32:00,
2013-05-10 15:41:00,67.0,66.0,29.88,NE,52,9.0,16.0,96,0.17,,,4.45,,2013-05-10 20:41:00,
2013-05-10 15:52:00,67.0,66.0,29.88,East,82,1.0,7.0,96,0.09,,,4.45,,2013-05-10 20:52:00,
2013-05-10 16:02:00,67.0,66.0,29.87,East,94,2.0,7.0,96,0.06,,,4.46,,2013-05-10 21:02:00,
2013-05-10 16:11:00,67.0,66.0,29.87,East,94,2.0,7.0,96,0.06,,,4.46,,2013-05-10 21:11:00,
2013-05-10 16:24:00,68.0,67.0,29.86,SW,222,2.0,5.0,95,0.02,,,4.46,,2013-05-10 21:24:00,
2013-05-10 16:32:00,69.0,67.0,29.86,ENE,75,1.0,7.0,93,0.01,,,4.46,,2013-05-10 21:32:00,
2013-05-10 16:43:00,69.0,67.0,29.86,ENE,75,1.0,7.0,93,0.01,,,4.46,,2013-05-10 21:43:00,
2013-05-10 16:52:00,70.0,66.0,29.87,South,189,5.0,11.0,88,0.01,,,4.46,,2013-05-10 21:52:00,
2013-05-10 17:02:00,71.0,66.0,29.88,SE,126,5.0,10.0,84,0.00,,,4.46,,2013-05-10 22:02:00,
2013-05-10 17:13:00,71.0,66.0,29.88,SE,126,5.0,10.0,84,0.00,,,4.46,,2013-05-10 22:13:00,
2013-05-10 17:22:00,73.0,66.0,29.89,SSW,196,3.0,8.0,80,0.00,,,4.46,,2013-05-10 22:22:00,
2013-05-10 17:32:00,73.0,66.0,29.91,South,176,327.0,327.0,78,-99.99,,,-99.99,,2013-05-10 22:32:00,
2013-05-10 17:42:00,73.0,66.0,29.91,South,176,327.0,327.0,78,-99.99,,,-99.99,,2013-05-10 22:42:00,
2013-05-10 17:52:00,75.0,66.0,29.90,South,178,1.0,2.0,74,0.00,,,4.46,,2013-05-10 22:52:00,
2013-05-10 18:02:00,74.0,66.0,29.91,South,173,0.0,7.0,76,0.00,,,4.46,,2013-05-10 23:02:00,
2013-05-10 18:12:00,74.0,66.0,29.91,South,173,0.0,7.0,76,0.00,,,4.46,,2013-05-10 23:12:00,
2013-05-10 18:22:00,74.0,66.0,29.91,South,171,2.0,7.0,76,0.00,,,4.46,,2013-05-10 23:22:00,
2013-05-10 18:32:00,74.0,66.0,29.90,SE,124,2.0,7.0,77,0.00,,,4.46,,2013-05-10 23:32:00,
2013-05-10 18:42:00,74.0,66.0,29.90,SE,124,2.0,7.0,77,0.00,,,4.46,,2013-05-10 23:42:00,
2013-05-10 18:52:00,74.0,67.0,29.92,East,97,1.0,5.0,78,0.00,,,4.46,,2013-05-10 23:52:00,
2013-05-10 19:02:00,74.0,67.0,29.92,SSE,167,2.0,5.0,79,0.00,,,4.46,,2013-05-11 00:02:00,
2013-05-10 19:11:00,74.0,67.0,29.92,SSE,167,2.0,5.0,79,0.00,,,4.46,,2013-05-11 00:11:00,
2013-05-10 19:21:00,73.0,66.0,29.93,ENE,76,2.0,8.0,79,0.00,,,4.46,,2013-05-11 00:21:00,
2013-05-10 19:32:00,72.0,66.0,29.94,East,96,3.0,7.0,81,0.00,,,4.46,,2013-05-11 00:32:00,
2013-05-10 19:42:00,72.0,66.0,29.94,East,96,3.0,7.0,81,0.00,,,4.46,,2013-05-11 00:42:00,
2013-05-10 19:52:00,71.0,66.0,29.96,ENE,59,1.0,7.0,84,0.00,,,4.46,,2013-05-11 00:52:00,
2013-05-10 20:01:00,70.0,65.0,29.96,ENE,65,1.0,5.0,85,0.00,,,4.46,,2013-05-11 01:01:00,
2013-05-10 20:11:00,70.0,65.0,29.96,ENE,65,1.0,5.0,85,0.00,,,4.46,,2013-05-11 01:11:00,
2013-05-10 20:21:00,70.0,66.0,29.96,NE,45,1.0,6.0,86,0.00,,,4.46,,2013-05-11 01:21:00,
2013-05-10 20:32:00,69.0,65.0,29.97,ENE,71,2.0,9.0,87,0.00,,,4.46,,2013-05-11 01:32:00,
2013-05-10 20:42:00,69.0,65.0,29.97,ENE,71,2.0,9.0,87,0.00,,,4.46,,2013-05-11 01:42:00,
2013-05-10 20:52:00,69.0,65.0,29.98,East,86,2.0,5.0,88,0.00,,,4.46,,2013-05-11 01:52:00,
2013-05-10 21:02:00,69.0,66.0,29.99,ENE,78,2.0,5.0,89,0.00,,,4.46,,2013-05-11 02:02:00,
2013-05-10 21:11:00,69.0,66.0,29.99,ENE,78,2.0,5.0,89,0.00,,,4.46,,2013-05-11 02:11:00,
2013-05-10 21:22:00,69.0,66.0,29.98,ENE,62,2.0,6.0,89,0.00,,,4.46,,2013-05-11 02:22:00,
2013-05-10 21:32:00,69.0,66.0,30.00,ENE,63,1.0,7.0,89,0.00,,,4.46,,2013-05-11 02:32:00,
2013-05-10 21:42:00,69.0,66.0,30.00,ENE,63,1.0,7.0,89,0.00,,,4.46,,2013-05-11 02:42:00,
2013-05-10 21:52:00,69.0,66.0,30.01,ENE,73,1.0,4.0,89,0.00,,,4.46,,2013-05-11 02:52:00,
2013-05-10 22:01:00,69.0,66.0,30.01,ENE,71,0.0,2.0,89,0.00,,,4.46,,2013-05-11 03:01:00,
2013-05-10 22:11:00,69.0,66.0,30.01,ENE,71,0.0,2.0,89,0.00,,,4.46,,2013-05-11 03:11:00,
2013-05-10 22:21:00,68.0,65.0,30.01,ENE,71,0.0,2.0,90,0.00,,,4.46,,2013-05-11 03:21:00,
2013-05-10 22:33:00,68.0,65.0,30.02,ENE,63,1.0,4.0,90,0.00,,,4.46,,2013-05-11 03:33:00,
2013-05-10 22:42:00,68.0,65.0,30.02,ENE,63,1.0,4.0,90,0.00,,,4.46,,2013-05-11 03:42:00,
2013-05-10 22:53:00,68.0,66.0,30.03,ENE,63,0.0,2.0,92,0.00,,,4.46,,2013-05-11 03:53:00,
2013-05-10 23:02:00,68.0,66.0,30.02,East,79,0.0,4.0,92,0.00,,,4.46,,2013-05-11 04:02:00,
2013-05-10 23:12:00,68.0,66.0,30.02,East,79,0.0,4.0,92,0.00,,,4.46,,2013-05-11 04:12:00,
2013-05-10 23:23:00,68.0,66.0,30.02,ENE,77,0.0,0.0,93,0.00,,,4.46,,2013-05-11 04:23:00,
2013-05-10 23:33:00,68.0,66.0,30.02,ENE,77,0.0,0.0,93,0.00,,,4.46,,2013-05-11 04:33:00,
2013-05-10 23:43:00,68.0,66.0,30.02,ENE,77,0.0,0.0,93,0.00,,,4.46,,2013-05-11 04:43:00,
2013-05-10 23:52:00,68.0,66.0,30.01,ENE,77,0.0,1.0,93,0.00,,,4.46,,2013-05-11 04:52:00,